createdAt,value
2022-09-20T00:05:37.933Z,100.00
2022-09-20T00:11:39.849Z,100.00
2022-09-20T00:17:41.759Z,99.88
2022-09-20T00:23:44.595Z,100.00
2022-09-20T00:29:46.822Z,99.72
2022-09-20T00:35:49.227Z,99.01
2022-09-20T00:41:53.712Z,98.99
2022-09-20T00:48:04.649Z,100.00
2022-09-20T00:54:10.020Z,100.00
2022-09-20T01:00:13.904Z,100.00
2022-09-20T01:06:16.971Z,100.00
2022-09-20T01:12:24.393Z,100.00
2022-09-20T01:18:28.315Z,100.00
2022-09-20T01:24:33.028Z,100.00
2022-09-20T01:31:24.923Z,100.00
2022-09-20T01:37:42.898Z,100.00
2022-09-20T01:44:21.053Z,100.00
2022-09-20T01:57:12.912Z,100.00
2022-09-20T02:03:39.541Z,100.00
2022-09-20T02:16:41.587Z,100.00
2022-09-20T02:23:05.159Z,100.00
2022-09-20T02:29:45.179Z,100.00
2022-09-20T02:36:14.562Z,100.00
2022-09-20T02:42:40.990Z,100.00
2022-09-20T02:49:31.348Z,100.00
2022-09-20T02:56:29.113Z,100.00
2022-09-20T03:02:59.205Z,100.00
2022-09-20T03:09:28.761Z,100.00
2022-09-20T03:15:52.284Z,100.00
2022-09-20T03:22:34.912Z,100.00
2022-09-20T03:29:08.723Z,100.00
2022-09-20T03:35:33.160Z,100.00
2022-09-20T03:41:53.933Z,100.00
2022-09-20T03:48:23.085Z,100.00
2022-09-20T03:55:14.006Z,100.00
2022-09-20T04:01:45.308Z,100.00
2022-09-20T04:08:14.111Z,100.00
2022-09-20T04:15:00.491Z,100.00
2022-09-20T04:21:47.060Z,100.00
2022-09-20T04:28:06.837Z,100.00
2022-09-20T04:34:50.492Z,100.00
2022-09-20T04:41:16.434Z,100.00
2022-09-20T04:47:25.066Z,100.00
2022-09-20T05:00:27.311Z,100.00
2022-09-20T05:07:09.981Z,100.00
2022-09-20T05:13:30.193Z,100.00
2022-09-20T05:20:05.199Z,100.00
2022-09-20T05:26:51.213Z,100.00
2022-09-20T05:33:37.429Z,100.00
2022-09-20T05:40:24.567Z,100.00
2022-09-20T05:46:35.108Z,100.00
2022-09-20T05:52:51.927Z,100.00
2022-09-20T05:59:31.152Z,100.00
2022-09-20T06:06:16.525Z,100.00
2022-09-20T06:13:03.946Z,100.00
2022-09-20T06:19:19.446Z,100.00
2022-09-20T06:25:42.902Z,100.00
2022-09-20T06:31:44.803Z,100.00
2022-09-20T06:38:31.212Z,100.00
2022-09-20T06:44:33.487Z,100.00
2022-09-20T06:50:38.895Z,100.00
2022-09-20T06:56:40.942Z,100.00
2022-09-20T07:02:43.635Z,100.00
2022-09-20T07:08:46.894Z,100.00
2022-09-20T07:14:50.694Z,100.00
2022-09-20T07:20:52.558Z,100.00
2022-09-20T07:26:57.357Z,100.00
2022-09-20T07:33:00.683Z,100.00
2022-09-20T07:39:02.982Z,100.00
2022-09-20T07:45:05.719Z,100.00
2022-09-20T07:51:11.318Z,100.00
2022-09-20T07:57:13.425Z,100.00
2022-09-20T08:03:15.309Z,100.00
2022-09-20T08:09:17.322Z,100.00
2022-09-20T08:15:19.286Z,99.27
2022-09-20T08:21:21.329Z,100.00
2022-09-20T08:27:23.267Z,99.21
2022-09-20T08:33:25.205Z,98.34
2022-09-20T08:45:49.225Z,98.49
2022-09-20T08:51:51.930Z,97.99
2022-09-20T09:05:35.180Z,94.43
2022-09-20T09:11:45.776Z,92.81
2022-09-20T09:17:48.066Z,92.48
2022-09-20T09:24:01.259Z,91.56
2022-09-20T09:30:23.297Z,88.64
2022-09-20T09:36:26.908Z,87.67
2022-09-20T09:42:31.704Z,87.47
2022-09-20T09:48:34.315Z,86.34
2022-09-20T09:54:42.190Z,77.65
2022-09-20T10:01:08.323Z,72.14
2022-09-20T10:07:39.629Z,76.93
2022-09-20T10:14:26.496Z,79.06
2022-09-20T10:20:53.186Z,63.16
2022-09-20T10:27:19.342Z,51.36
2022-09-20T10:33:28.072Z,55.25
2022-09-20T10:39:39.066Z,68.78
2022-09-20T10:46:32.998Z,77.04
2022-09-20T10:52:59.754Z,81.37
2022-09-20T10:59:57.887Z,83.41
2022-09-20T11:06:48.087Z,84.56
2022-09-20T11:13:08.632Z,84.23
2022-09-20T11:19:11.614Z,83.64
2022-09-20T11:25:48.489Z,81.99
2022-09-20T11:31:54.779Z,83.32
2022-09-20T11:38:27.393Z,82.35
2022-09-20T11:44:29.924Z,67.34
2022-09-20T11:50:57.311Z,57.80
2022-09-20T11:57:00.601Z,57.75
2022-09-20T12:03:08.827Z,59.98
2022-09-20T12:09:39.191Z,58.20
2022-09-20T12:15:42.265Z,49.47
2022-09-20T12:21:59.533Z,48.08
2022-09-20T12:28:01.542Z,40.25
2022-09-20T12:34:15.949Z,40.82
2022-09-20T12:40:19.162Z,40.20
2022-09-20T12:46:31.549Z,45.94
2022-09-20T12:52:57.225Z,57.82
2022-09-20T12:59:05.351Z,62.68
2022-09-20T13:05:34.095Z,52.76
2022-09-20T13:12:10.527Z,53.39
2022-09-20T13:18:15.488Z,49.78
2022-09-20T13:24:20.645Z,40.40
2022-09-20T13:36:58.401Z,44.21
2022-09-20T13:43:24.793Z,46.83
2022-09-20T13:49:32.247Z,53.58
2022-09-20T13:55:39.738Z,58.60
2022-09-20T14:01:53.181Z,64.47
2022-09-20T14:07:56.693Z,60.13
2022-09-20T14:14:04.893Z,51.83
2022-09-20T14:20:07.482Z,54.26
2022-09-20T14:26:37.829Z,57.84
2022-09-20T14:32:42.913Z,60.22
2022-09-20T14:38:47.811Z,61.59
2022-09-20T14:44:53.214Z,62.10
2022-09-20T14:51:18.178Z,60.41
2022-09-20T14:57:22.463Z,46.69
2022-09-20T15:03:36.726Z,38.78
2022-09-20T15:09:39.173Z,34.39
2022-09-20T15:15:46.587Z,34.52
2022-09-20T15:21:48.709Z,41.93
2022-09-20T15:27:53.237Z,42.31
2022-09-20T15:33:55.315Z,38.74
2022-09-20T15:39:57.751Z,39.44
2022-09-20T15:46:16.822Z,38.21
2022-09-20T15:52:25.567Z,44.05
2022-09-20T15:58:34.903Z,54.08
2022-09-20T16:04:37.758Z,62.26
2022-09-20T16:10:39.919Z,68.14
2022-09-20T16:23:57.598Z,74.80
2022-09-20T16:30:21.371Z,78.30
2022-09-20T16:36:27.885Z,69.85
2022-09-20T16:42:30.720Z,71.39
2022-09-20T16:49:11.627Z,75.46
2022-09-20T16:55:57.082Z,79.06
2022-09-20T17:02:01.954Z,81.32
2022-09-20T17:08:38.970Z,83.83
2022-09-20T17:14:40.950Z,86.41
2022-09-20T17:20:43.966Z,88.28
2022-09-20T17:26:46.372Z,89.76
2022-09-20T17:39:45.533Z,92.44
2022-09-20T17:45:56.355Z,92.29
2022-09-20T17:51:58.255Z,93.33
2022-09-20T17:58:00.392Z,93.43
2022-09-20T18:04:04.112Z,94.92
2022-09-20T18:10:07.359Z,95.00
2022-09-20T18:16:12.085Z,95.82
2022-09-20T18:22:14.108Z,96.23
2022-09-20T18:28:18.104Z,95.73
2022-09-20T18:34:26.693Z,96.19
2022-09-20T18:40:29.762Z,96.79
2022-09-20T18:46:32.019Z,96.68
2022-09-20T18:52:38.196Z,96.47
2022-09-20T18:58:40.465Z,96.75
2022-09-20T19:05:14.135Z,97.98
2022-09-20T19:11:39.172Z,99.82
2022-09-20T19:17:53.623Z,99.78
2022-09-20T19:24:28.287Z,99.91
2022-09-20T19:30:30.771Z,99.52
2022-09-20T19:36:45.588Z,98.53
2022-09-20T19:43:00.142Z,99.29
2022-09-20T19:49:20.381Z,99.85
2022-09-20T20:02:09.132Z,98.44
2022-09-20T20:15:29.799Z,100.00
2022-09-20T20:21:55.334Z,100.00
2022-09-20T20:27:58.827Z,100.00
2022-09-20T20:34:03.035Z,100.00
2022-09-20T20:40:07.245Z,100.00
2022-09-20T20:46:52.143Z,99.83
2022-09-20T20:52:57.347Z,98.79
2022-09-20T20:59:02.263Z,99.52
2022-09-20T21:05:04.804Z,100.00
2022-09-20T21:11:25.463Z,100.00
2022-09-20T21:17:27.451Z,100.00
2022-09-20T21:23:34.918Z,100.00
2022-09-20T21:29:36.868Z,100.00
2022-09-20T21:35:38.801Z,100.00
2022-09-20T21:41:41.078Z,100.00
2022-09-20T21:47:42.963Z,100.00
2022-09-20T21:53:45.678Z,100.00
2022-09-20T21:59:47.622Z,100.00
2022-09-20T22:05:49.567Z,100.00
2022-09-20T22:11:51.981Z,100.00
2022-09-20T22:17:55.465Z,100.00
2022-09-20T22:24:03.098Z,100.00
2022-09-20T22:30:05.824Z,100.00
2022-09-20T22:36:09.673Z,100.00
2022-09-20T22:42:11.507Z,100.00
2022-09-20T22:48:13.382Z,100.00
2022-09-20T22:54:15.582Z,100.00
2022-09-20T23:00:17.488Z,100.00
2022-09-20T23:06:22.921Z,100.00
2022-09-20T23:12:24.776Z,100.00
2022-09-20T23:18:26.906Z,100.00
2022-09-20T23:24:28.758Z,100.00
2022-09-20T23:30:31.621Z,100.00
2022-09-20T23:36:38.194Z,100.00
2022-09-20T23:42:40.068Z,100.00
2022-09-20T23:48:42.970Z,100.00
2022-09-20T23:54:44.861Z,100.00
